Aviation Digital Data Service (ADDS)

Output produced by METARs form (0057 UTC 19 August 2019)
found at http://www.aviationweather.gov/metar/data/
 
METAR text: ZWSH 190000Z VRB04MPS 9999 BKN040 21/M08 Q1015 NOSIG
Conditions at: ZWSH (KASHI , CN) observed 0000 UTC 19 August 2019
Temperature: 21.0°C (70°F)
Dewpoint: -8.0°C (18°F) [RH = 13%]
Pressure (altimeter): 29.97 inches Hg (1015.0 mb)
Winds: variable direction winds at 9 MPH (8 knots; 4.1 m/s)
Visibility: 6 or more miles (10+ km)
Ceiling: 4000 feet AGL
Clouds: broken clouds at 4000 feet AGL
Weather: no significant weather observed at this time

METAR text: ZWSH 182300Z 27004MPS 9999 BKN040 22/M08 Q1015 NOSIG
Conditions at: ZWSH (KASHI , CN) observed 2300 UTC 18 August 2019
Temperature: 22.0°C (72°F)
Dewpoint: -8.0°C (18°F) [RH = 13%]
Pressure (altimeter): 29.97 inches Hg (1015.0 mb)
Winds: from the W (270 degrees) at 9 MPH (8 knots; 4.1 m/s)
Visibility: 6 or more miles (10+ km)
Ceiling: 4000 feet AGL
Clouds: broken clouds at 4000 feet AGL
Weather: no significant weather observed at this time

METAR text: ZWSH 182200Z 26005MPS 9999 BKN040 22/M07 Q1014 NOSIG
Conditions at: ZWSH (KASHI , CN) observed 2200 UTC 18 August 2019
Temperature: 22.0°C (72°F)
Dewpoint: -7.0°C (19°F) [RH = 14%]
Pressure (altimeter): 29.94 inches Hg (1014.0 mb)
Winds: from the W (260 degrees) at 12 MPH (10 knots; 5.1 m/s)
Visibility: 6 or more miles (10+ km)
Ceiling: 4000 feet AGL
Clouds: broken clouds at 4000 feet AGL
Weather: no significant weather observed at this time

METAR text: ZWSH 182100Z 27006MPS 9999 BKN040 23/M11 Q1014 NOSIG
Conditions at: ZWSH (KASHI , CN) observed 2100 UTC 18 August 2019
Temperature: 23.0°C (73°F)
Dewpoint: -11.0°C (12°F) [RH =  9%]
Pressure (altimeter): 29.94 inches Hg (1014.0 mb)
Winds: from the W (270 degrees) at 14 MPH (12 knots; 6.2 m/s)
Visibility: 6 or more miles (10+ km)
Ceiling: 4000 feet AGL
Clouds: broken clouds at 4000 feet AGL
Weather: no significant weather observed at this time

METAR text: ZWSH 182000Z 25006MPS 9999 BKN040 24/M09 Q1014 NOSIG
Conditions at: ZWSH (KASHI , CN) observed 2000 UTC 18 August 2019
Temperature: 24.0°C (75°F)
Dewpoint: -9.0°C (16°F) [RH = 10%]
Pressure (altimeter): 29.94 inches Hg (1014.0 mb)
Winds: from the WSW (250 degrees) at 14 MPH (12 knots; 6.2 m/s)
Visibility: 6 or more miles (10+ km)
Ceiling: 4000 feet AGL
Clouds: broken clouds at 4000 feet AGL
Weather: no significant weather observed at this time

METAR text: ZWSH 181900Z AUTO 26006MPS 9999 // ////// 24/M07 Q1014
Conditions at: ZWSH (KASHI , CN) observed 1900 UTC 18 August 2019
Temperature: 24.0°C (75°F)
Dewpoint: -7.0°C (19°F) [RH = 12%]
Pressure (altimeter): 29.94 inches Hg (1014.0 mb)
Winds: from the W (260 degrees) at 14 MPH (12 knots; 6.2 m/s)
Visibility: 6 or more miles (10+ km)
Ceiling: unknown
Clouds: missing
Weather: no significant weather observed at this time

METAR text: ZWSH 181800Z 27006MPS 9999 BKN040 24/M05 Q1015 NOSIG
Conditions at: ZWSH (KASHI , CN) observed 1800 UTC 18 August 2019
Temperature: 24.0°C (75°F)
Dewpoint: -5.0°C (23°F) [RH = 14%]
Pressure (altimeter): 29.97 inches Hg (1015.0 mb)
Winds: from the W (270 degrees) at 14 MPH (12 knots; 6.2 m/s)
Visibility: 6 or more miles (10+ km)
Ceiling: 4000 feet AGL
Clouds: broken clouds at 4000 feet AGL
Weather: no significant weather observed at this time

METAR text: ZWSH 181700Z 26006MPS 9999 BKN040 24/M03 Q1014 NOSIG
Conditions at: ZWSH (KASHI , CN) observed 1700 UTC 18 August 2019
Temperature: 24.0°C (75°F)
Dewpoint: -3.0°C (27°F) [RH = 16%]
Pressure (altimeter): 29.94 inches Hg (1014.0 mb)
Winds: from the W (260 degrees) at 14 MPH (12 knots; 6.2 m/s)
Visibility: 6 or more miles (10+ km)
Ceiling: 4000 feet AGL
Clouds: broken clouds at 4000 feet AGL
Weather: no significant weather observed at this time

METAR text: ZWSH 181600Z 28007MPS 9999 FEW040CB BKN040 25/M05 Q1014 NOSIG
Conditions at: ZWSH (KASHI , CN) observed 1600 UTC 18 August 2019
Temperature: 25.0°C (77°F)
Dewpoint: -5.0°C (23°F) [RH = 13%]
Pressure (altimeter): 29.94 inches Hg (1014.0 mb)
Winds: from the W (280 degrees) at 16 MPH (14 knots; 7.2 m/s)
Visibility: 6 or more miles (10+ km)
Ceiling: 4000 feet AGL
Clouds: few clouds at 4000 feet AGL
broken clouds at 4000 feet AGL
Weather: no significant weather observed at this time

METAR text: ZWSH 181500Z 29011MPS 9999 SCT033CB SCT040 25/M04 Q1013 NOSIG
Conditions at: ZWSH (KASHI , CN) observed 1500 UTC 18 August 2019
Temperature: 25.0°C (77°F)
Dewpoint: -4.0°C (25°F) [RH = 14%]
Pressure (altimeter): 29.91 inches Hg (1013.0 mb)
Winds: from the WNW (290 degrees) at 24 MPH (21 knots; 10.8 m/s)
Visibility: 6 or more miles (10+ km)
Ceiling: at least 12,000 feet AGL
Clouds: scattered clouds at 3300 feet AGL
scattered clouds at 4000 feet AGL
Weather: no significant weather observed at this time

METAR text: ZWSH 181400Z 29011MPS 8000 BKN033CB 26/M04 Q1012 NOSIG
Conditions at: ZWSH (KASHI , CN) observed 1400 UTC 18 August 2019
Temperature: 26.0°C (79°F)
Dewpoint: -4.0°C (25°F) [RH = 14%]
Pressure (altimeter): 29.88 inches Hg (1012.0 mb)
Winds: from the WNW (290 degrees) at 24 MPH (21 knots; 10.8 m/s)
Visibility: 5 miles ( 8 km)
Ceiling: 3300 feet AGL
Clouds: broken clouds at 3300 feet AGL
Weather: no significant weather observed at this time

METAR text: ZWSH 181300Z 30009MPS 9999 BKN033CB 28/M04 Q1011 NOSIG
Conditions at: ZWSH (KASHI , CN) observed 1300 UTC 18 August 2019
Temperature: 28.0°C (82°F)
Dewpoint: -4.0°C (25°F) [RH = 12%]
Pressure (altimeter): 29.85 inches Hg (1011.0 mb)
Winds: from the WNW (300 degrees) at 20 MPH (17 knots; 8.7 m/s)
Visibility: 6 or more miles (10+ km)
Ceiling: 3300 feet AGL
Clouds: broken clouds at 3300 feet AGL
Weather: no significant weather observed at this time

METAR text: ZWSH 181200Z 31009MPS 9999 BKN033CB 28/M04 Q1010 NOSIG
Conditions at: ZWSH (KASHI , CN) observed 1200 UTC 18 August 2019
Temperature: 28.0°C (82°F)
Dewpoint: -4.0°C (25°F) [RH = 12%]
Pressure (altimeter): 29.82 inches Hg (1010.0 mb)
Winds: from the NW (310 degrees) at 20 MPH (17 knots; 8.7 m/s)
Visibility: 6 or more miles (10+ km)
Ceiling: 3300 feet AGL
Clouds: broken clouds at 3300 feet AGL
Weather: no significant weather observed at this time

METAR text: ZWSH 181100Z 16004MPS 130V190 9999 SCT033CB 29/M03 Q1008 NOSIG
Conditions at: ZWSH (KASHI , CN) observed 1100 UTC 18 August 2019
Temperature: 29.0°C (84°F)
Dewpoint: -3.0°C (27°F) [RH = 12%]
Pressure (altimeter): 29.76 inches Hg (1008.0 mb)
Winds: from the SSE (160 degrees) at 9 MPH (8 knots; 4.1 m/s)
Visibility: 6 or more miles (10+ km)
Ceiling: at least 12,000 feet AGL
Clouds: scattered clouds at 3300 feet AGL
Weather: no significant weather observed at this time

METAR text: ZWSH 181000Z 12004MPS 090V160 9999 FEW040CB SCT040 32/M05 Q1007 NOSIG
Conditions at: ZWSH (KASHI , CN) observed 1000 UTC 18 August 2019
Temperature: 32.0°C (90°F)
Dewpoint: -5.0°C (23°F) [RH =  9%]
Pressure (altimeter): 29.73 inches Hg (1007.0 mb)
Winds: from the ESE (120 degrees) at 9 MPH (8 knots; 4.1 m/s)
Visibility: 6 or more miles (10+ km)
Ceiling: at least 12,000 feet AGL
Clouds: few clouds at 4000 feet AGL
scattered clouds at 4000 feet AGL
Weather: no significant weather observed at this time

METAR text: ZWSH 180900Z 14004G09MPS 070V190 9999 FEW040CB SCT040 30/M05 Q1007 NOSIG
Conditions at: ZWSH (KASHI , CN) observed 0900 UTC 18 August 2019
Temperature: 30.0°C (86°F)
Dewpoint: -5.0°C (23°F) [RH = 10%]
Pressure (altimeter): 29.73 inches Hg (1007.0 mb)
Winds: from the SE (140 degrees) at 9 MPH (8 knots; 4.1 m/s)
gusting to 20 MPH (17 knots; 8.7 m/s)
Visibility: 6 or more miles (10+ km)
Ceiling: at least 12,000 feet AGL
Clouds: few clouds at 4000 feet AGL
scattered clouds at 4000 feet AGL
Weather: no significant weather observed at this time

METAR text: ZWSH 180800Z 17003MPS 120V220 9999 FEW040 29/M06 Q1008 NOSIG
Conditions at: ZWSH (KASHI , CN) observed 0800 UTC 18 August 2019
Temperature: 29.0°C (84°F)
Dewpoint: -6.0°C (21°F) [RH = 10%]
Pressure (altimeter): 29.76 inches Hg (1008.0 mb)
Winds: from the S (170 degrees) at 7 MPH (6 knots; 3.1 m/s)
Visibility: 6 or more miles (10+ km)
Ceiling: at least 12,000 feet AGL
Clouds: few clouds at 4000 feet AGL
Weather: no significant weather observed at this time

METAR text: ZWSH 180700Z 20004G12MPS 170V240 9999 FEW040 29/M06 Q1008 NOSIG
Conditions at: ZWSH (KASHI , CN) observed 0700 UTC 18 August 2019
Temperature: 29.0°C (84°F)
Dewpoint: -6.0°C (21°F) [RH = 10%]
Pressure (altimeter): 29.76 inches Hg (1008.0 mb)
Winds: from the SSW (200 degrees) at 9 MPH (8 knots; 4.1 m/s)
gusting to 26 MPH (23 knots; 11.8 m/s)
Visibility: 6 or more miles (10+ km)
Ceiling: at least 12,000 feet AGL
Clouds: few clouds at 4000 feet AGL
Weather: no significant weather observed at this time

METAR text: ZWSH 180600Z 19004MPS 150V250 CAVOK 28/M08 Q1009 NOSIG
Conditions at: ZWSH (KASHI , CN) observed 0600 UTC 18 August 2019
Temperature: 28.0°C (82°F)
Dewpoint: -8.0°C (18°F) [RH =  9%]
Pressure (altimeter): 29.79 inches Hg (1009.0 mb)
Winds: from the S (190 degrees) at 9 MPH (8 knots; 4.1 m/s)
Visibility: 6 or more miles (10+ km)
Ceiling: ceiling and visibility are OK
Clouds: unknown
Weather: no significant weather observed at this time

METAR text: ZWSH 180500Z 22003MPS 160V260 CAVOK 27/M07 Q1009 NOSIG
Conditions at: ZWSH (KASHI , CN) observed 0500 UTC 18 August 2019
Temperature: 27.0°C (81°F)
Dewpoint: -7.0°C (19°F) [RH = 10%]
Pressure (altimeter): 29.79 inches Hg (1009.0 mb)
Winds: from the SW (220 degrees) at 7 MPH (6 knots; 3.1 m/s)
Visibility: 6 or more miles (10+ km)
Ceiling: ceiling and visibility are OK
Clouds: unknown
Weather: no significant weather observed at this time

METAR text: ZWSH 180400Z 28005MPS 230V320 CAVOK 26/M05 Q1010 NOSIG
Conditions at: ZWSH (KASHI , CN) observed 0400 UTC 18 August 2019
Temperature: 26.0°C (79°F)
Dewpoint: -5.0°C (23°F) [RH = 13%]
Pressure (altimeter): 29.82 inches Hg (1010.0 mb)
Winds: from the W (280 degrees) at 12 MPH (10 knots; 5.1 m/s)
Visibility: 6 or more miles (10+ km)
Ceiling: ceiling and visibility are OK
Clouds: unknown
Weather: no significant weather observed at this time

METAR text: ZWSH 180300Z 28006MPS CAVOK 25/M09 Q1010 NOSIG
Conditions at: ZWSH (KASHI , CN) observed 0300 UTC 18 August 2019
Temperature: 25.0°C (77°F)
Dewpoint: -9.0°C (16°F) [RH = 10%]
Pressure (altimeter): 29.82 inches Hg (1010.0 mb)
Winds: from the W (280 degrees) at 14 MPH (12 knots; 6.2 m/s)
Visibility: 6 or more miles (10+ km)
Ceiling: ceiling and visibility are OK
Clouds: unknown
Weather: no significant weather observed at this time

METAR text: ZWSH 180200Z 27004MPS CAVOK 23/M08 Q1010 NOSIG
Conditions at: ZWSH (KASHI , CN) observed 0200 UTC 18 August 2019
Temperature: 23.0°C (73°F)
Dewpoint: -8.0°C (18°F) [RH = 12%]
Pressure (altimeter): 29.82 inches Hg (1010.0 mb)
Winds: from the W (270 degrees) at 9 MPH (8 knots; 4.1 m/s)
Visibility: 6 or more miles (10+ km)
Ceiling: ceiling and visibility are OK
Clouds: unknown
Weather: no significant weather observed at this time

METAR text: ZWSH 180100Z 30006MPS CAVOK 21/M07 Q1010 NOSIG
Conditions at: ZWSH (KASHI , CN) observed 0100 UTC 18 August 2019
Temperature: 21.0°C (70°F)
Dewpoint: -7.0°C (19°F) [RH = 15%]
Pressure (altimeter): 29.82 inches Hg (1010.0 mb)
Winds: from the WNW (300 degrees) at 14 MPH (12 knots; 6.2 m/s)
Visibility: 6 or more miles (10+ km)
Ceiling: ceiling and visibility are OK
Clouds: unknown
Weather: no significant weather observed at this time

METAR text: ZWSH 180000Z 31006MPS CAVOK 20/M07 Q1009 NOSIG
Conditions at: ZWSH (KASHI , CN) observed 0000 UTC 18 August 2019
Temperature: 20.0°C (68°F)
Dewpoint: -7.0°C (19°F) [RH = 15%]
Pressure (altimeter): 29.79 inches Hg (1009.0 mb)
Winds: from the NW (310 degrees) at 14 MPH (12 knots; 6.2 m/s)
Visibility: 6 or more miles (10+ km)
Ceiling: ceiling and visibility are OK
Clouds: unknown
Weather: no significant weather observed at this time

METAR text: ZWSH 172300Z 31006MPS CAVOK 21/M08 Q1009 NOSIG
Conditions at: ZWSH (KASHI , CN) observed 2300 UTC 17 August 2019
Temperature: 21.0°C (70°F)
Dewpoint: -8.0°C (18°F) [RH = 13%]
Pressure (altimeter): 29.79 inches Hg (1009.0 mb)
Winds: from the NW (310 degrees) at 14 MPH (12 knots; 6.2 m/s)
Visibility: 6 or more miles (10+ km)
Ceiling: ceiling and visibility are OK
Clouds: unknown
Weather: no significant weather observed at this time

METAR text: ZWSH 172200Z 32006MPS CAVOK 22/M10 Q1009 NOSIG
Conditions at: ZWSH (KASHI , CN) observed 2200 UTC 17 August 2019
Temperature: 22.0°C (72°F)
Dewpoint: -10.0°C (14°F) [RH = 11%]
Pressure (altimeter): 29.79 inches Hg (1009.0 mb)
Winds: from the NW (320 degrees) at 14 MPH (12 knots; 6.2 m/s)
Visibility: 6 or more miles (10+ km)
Ceiling: ceiling and visibility are OK
Clouds: unknown
Weather: no significant weather observed at this time

METAR text: ZWSH 172100Z 32006MPS CAVOK 22/M09 Q1009 NOSIG
Conditions at: ZWSH (KASHI , CN) observed 2100 UTC 17 August 2019
Temperature: 22.0°C (72°F)
Dewpoint: -9.0°C (16°F) [RH = 12%]
Pressure (altimeter): 29.79 inches Hg (1009.0 mb)
Winds: from the NW (320 degrees) at 14 MPH (12 knots; 6.2 m/s)
Visibility: 6 or more miles (10+ km)
Ceiling: ceiling and visibility are OK
Clouds: unknown
Weather: no significant weather observed at this time

METAR text: ZWSH 172000Z 32007MPS CAVOK 23/M08 Q1010 NOSIG
Conditions at: ZWSH (KASHI , CN) observed 2000 UTC 17 August 2019
Temperature: 23.0°C (73°F)
Dewpoint: -8.0°C (18°F) [RH = 12%]
Pressure (altimeter): 29.82 inches Hg (1010.0 mb)
Winds: from the NW (320 degrees) at 16 MPH (14 knots; 7.2 m/s)
Visibility: 6 or more miles (10+ km)
Ceiling: ceiling and visibility are OK
Clouds: unknown
Weather: no significant weather observed at this time

METAR text: ZWSH 171900Z 33008MPS CAVOK 24/M09 Q1010 NOSIG
Conditions at: ZWSH (KASHI , CN) observed 1900 UTC 17 August 2019
Temperature: 24.0°C (75°F)
Dewpoint: -9.0°C (16°F) [RH = 10%]
Pressure (altimeter): 29.82 inches Hg (1010.0 mb)
Winds: from the NNW (330 degrees) at 18 MPH (16 knots; 8.2 m/s)
Visibility: 6 or more miles (10+ km)
Ceiling: ceiling and visibility are OK
Clouds: unknown
Weather: no significant weather observed at this time

METAR text: ZWSH 171800Z 33008MPS 9999 FEW040 24/M07 Q1010 NOSIG
Conditions at: ZWSH (KASHI , CN) observed 1800 UTC 17 August 2019
Temperature: 24.0°C (75°F)
Dewpoint: -7.0°C (19°F) [RH = 12%]
Pressure (altimeter): 29.82 inches Hg (1010.0 mb)
Winds: from the NNW (330 degrees) at 18 MPH (16 knots; 8.2 m/s)
Visibility: 6 or more miles (10+ km)
Ceiling: at least 12,000 feet AGL
Clouds: few clouds at 4000 feet AGL
Weather: no significant weather observed at this time

METAR text: ZWSH 171700Z VRB03MPS 9999 FEW033CB BKN040 25/M00 Q1011 NOSIG
Conditions at: ZWSH (KASHI , CN) observed 1700 UTC 17 August 2019
Temperature: 25.0°C (77°F)
Dewpoint: 0.0°C (32°F) [RH = 19%]
Pressure (altimeter): 29.85 inches Hg (1011.0 mb)
Winds: variable direction winds at 7 MPH (6 knots; 3.1 m/s)
Visibility: 6 or more miles (10+ km)
Ceiling: 4000 feet AGL
Clouds: few clouds at 3300 feet AGL
broken clouds at 4000 feet AGL
Weather: no significant weather observed at this time

METAR text: ZWSH 171600Z VRB10MPS 9999 FEW033CB SCT040 25/01 Q1010 RETS NOSIG
Conditions at: ZWSH (KASHI , CN) observed 1600 UTC 17 August 2019
Temperature: 25.0°C (77°F)
Dewpoint: 1.0°C (34°F) [RH = 21%]
Pressure (altimeter): 29.82 inches Hg (1010.0 mb)
Winds: variable direction winds at 22 MPH (19 knots; 9.8 m/s)
Visibility: 6 or more miles (10+ km)
Ceiling: at least 12,000 feet AGL
Clouds: few clouds at 3300 feet AGL
scattered clouds at 4000 feet AGL
Weather: no significant weather observed at this time

METAR text: ZWSH 171500Z VRB01MPS 9999 TS SCT033CB SCT040 26/04 Q1010 NOSIG
Conditions at: ZWSH (KASHI , CN) observed 1500 UTC 17 August 2019
Temperature: 26.0°C (79°F)
Dewpoint: 4.0°C (39°F) [RH = 24%]
Pressure (altimeter): 29.82 inches Hg (1010.0 mb)
Winds: variable direction winds at 2 MPH (2 knots; 1.0 m/s)
Visibility: 6 or more miles (10+ km)
Ceiling: at least 12,000 feet AGL
Clouds: scattered clouds at 3300 feet AGL
scattered clouds at 4000 feet AGL
Weather: TS  (thunderstorm)

METAR text: ZWSH 171400Z VRB01MPS 9999 FEW033CB SCT040 26/04 Q1009 NOSIG
Conditions at: ZWSH (KASHI , CN) observed 1400 UTC 17 August 2019
Temperature: 26.0°C (79°F)
Dewpoint: 4.0°C (39°F) [RH = 24%]
Pressure (altimeter): 29.79 inches Hg (1009.0 mb)
Winds: variable direction winds at 2 MPH (2 knots; 1.0 m/s)
Visibility: 6 or more miles (10+ km)
Ceiling: at least 12,000 feet AGL
Clouds: few clouds at 3300 feet AGL
scattered clouds at 4000 feet AGL
Weather: no significant weather observed at this time

METAR text: ZWSH 171300Z 15003MPS 9999 SCT040 26/05 Q1008 NOSIG
Conditions at: ZWSH (KASHI , CN) observed 1300 UTC 17 August 2019
Temperature: 26.0°C (79°F)
Dewpoint: 5.0°C (41°F) [RH = 26%]
Pressure (altimeter): 29.76 inches Hg (1008.0 mb)
Winds: from the SSE (150 degrees) at 7 MPH (6 knots; 3.1 m/s)
Visibility: 6 or more miles (10+ km)
Ceiling: at least 12,000 feet AGL
Clouds: scattered clouds at 4000 feet AGL
Weather: no significant weather observed at this time

Forecast for: ZWSH (KASHI , CN)
Text: TAF ZWSH 182115Z 1900/1924 32008MPS 6000 FEW033CB SCT040 TX28/1909Z TN19/1900Z
Forecast period: 0000 to 0500 UTC 19 August 2019
Forecast type: FROM: standard forecast or significant change
Winds: from the NW (320 degrees) at 18 MPH (16 knots; 8.2 m/s)
Visibility: 4 miles (6 km)
Ceiling: at least 12,000 feet AGL
Clouds: few clouds at 3300 feet AGL
scattered clouds at 4000 feet AGL
Weather: no significant weather forecast for this period
Text: BECMG 1905/1906 12004MPS
Forecast period: 0500 UTC 19 August 2019 to 0000 UTC 20 August 2019
Forecast type: BECOMING: Conditions expected to become as follows by 0600 UTC 19 August 2019
Winds: from the ESE (120 degrees) at 9 MPH (8 knots; 4.1 m/s)
Visibility: 4 miles (6 km)
Ceiling: at least 12,000 feet AGL
Clouds: few clouds at 3300 feet AGL
scattered clouds at 4000 feet AGL
Weather: no significant weather forecast for this period